createdAt,value
2017-09-16T00:01:46.572Z,8.43
2017-09-16T00:04:14.307Z,8.47
2017-09-16T00:06:41.989Z,8.51
2017-09-16T00:09:09.742Z,8.50
2017-09-16T00:11:37.419Z,8.43
2017-09-16T00:14:05.161Z,8.26
2017-09-16T00:16:32.847Z,8.14
2017-09-16T00:19:00.627Z,8.08
2017-09-16T00:21:28.310Z,8.05
2017-09-16T00:23:55.970Z,8.01
2017-09-16T00:26:23.675Z,7.93
2017-09-16T00:28:51.404Z,7.88
2017-09-16T00:31:19.099Z,7.84
2017-09-16T00:33:46.837Z,7.75
2017-09-16T00:36:14.574Z,7.73
2017-09-16T00:38:42.293Z,7.84
2017-09-16T00:41:09.978Z,7.94
2017-09-16T00:43:37.707Z,7.98
2017-09-16T00:46:05.406Z,7.95
2017-09-16T00:48:33.123Z,7.89
2017-09-16T00:51:00.859Z,7.87
2017-09-16T00:53:28.639Z,7.84
2017-09-16T00:55:56.325Z,7.71
2017-09-16T00:58:24.075Z,7.65
2017-09-16T01:00:51.750Z,7.63
2017-09-16T01:03:19.485Z,7.68
2017-09-16T01:05:47.220Z,7.74
2017-09-16T01:08:14.920Z,7.74
2017-09-16T01:10:42.672Z,7.74
2017-09-16T01:13:10.365Z,7.71
2017-09-16T01:15:38.093Z,7.68
2017-09-16T01:18:05.779Z,7.59
2017-09-16T01:20:33.539Z,7.50
2017-09-16T01:23:01.245Z,7.42
2017-09-16T01:25:28.983Z,7.44
2017-09-16T01:27:56.725Z,7.44
2017-09-16T01:30:24.479Z,7.44
2017-09-16T01:32:52.199Z,7.44
2017-09-16T01:35:19.996Z,7.45
2017-09-16T01:37:47.685Z,7.47
2017-09-16T01:40:15.429Z,7.52
2017-09-16T01:42:43.124Z,7.55
2017-09-16T01:45:10.852Z,7.46
2017-09-16T01:47:38.524Z,7.40
2017-09-16T01:50:06.255Z,7.37
2017-09-16T01:52:33.949Z,7.35
2017-09-16T01:55:01.673Z,7.34
2017-09-16T01:57:29.355Z,7.34
2017-09-16T01:59:57.085Z,7.37
2017-09-16T02:02:24.783Z,7.40
2017-09-16T02:04:52.513Z,7.39
2017-09-16T02:07:20.184Z,7.36
2017-09-16T02:09:47.916Z,7.37
2017-09-16T02:12:15.621Z,7.39
2017-09-16T02:14:43.370Z,7.36
2017-09-16T02:17:11.066Z,7.35
2017-09-16T02:19:38.798Z,7.37
2017-09-16T02:22:06.483Z,7.38
2017-09-16T02:24:34.213Z,7.40
2017-09-16T02:27:01.906Z,7.41
2017-09-16T02:29:29.638Z,7.40
2017-09-16T02:31:57.330Z,7.42
2017-09-16T02:34:25.064Z,7.44
2017-09-16T02:36:52.787Z,7.45
2017-09-16T02:39:20.534Z,7.46
2017-09-16T02:41:48.227Z,7.48
2017-09-16T02:44:15.929Z,7.48
2017-09-16T02:46:43.675Z,7.45
2017-09-16T02:49:11.383Z,7.44
2017-09-16T02:51:39.156Z,7.43
2017-09-16T02:54:06.838Z,7.46
2017-09-16T02:56:34.597Z,7.49
2017-09-16T02:59:02.329Z,7.51
2017-09-16T03:01:30.046Z,7.53
2017-09-16T03:03:57.727Z,7.52
2017-09-16T03:06:25.479Z,7.51
2017-09-16T03:08:53.165Z,7.46
2017-09-16T03:11:20.906Z,7.39
2017-09-16T03:13:48.606Z,7.36
2017-09-16T03:16:16.385Z,7.31
2017-09-16T03:18:44.113Z,7.26
2017-09-16T03:21:11.874Z,7.24
2017-09-16T03:23:39.570Z,7.22
2017-09-16T03:26:10.586Z,7.14
2017-09-16T03:28:38.277Z,7.08
2017-09-16T03:31:06.014Z,7.11
2017-09-16T03:33:33.708Z,7.17
2017-09-16T03:36:01.505Z,7.15
2017-09-16T03:38:29.198Z,7.11
2017-09-16T03:40:57.042Z,7.06
2017-09-16T03:43:24.754Z,7.05
2017-09-16T03:45:52.500Z,7.09
2017-09-16T03:48:20.195Z,7.07
2017-09-16T03:50:47.919Z,7.04
2017-09-16T03:53:15.595Z,7.02
2017-09-16T03:55:43.329Z,7.01
2017-09-16T03:58:11.000Z,6.98
2017-09-16T04:00:38.713Z,6.99
2017-09-16T04:03:06.423Z,6.94
2017-09-16T04:05:34.154Z,6.89
2017-09-16T04:08:01.863Z,6.90
2017-09-16T04:10:29.574Z,6.92
2017-09-16T04:12:57.276Z,6.92
2017-09-16T04:15:25.041Z,6.88
2017-09-16T04:17:52.746Z,6.84
2017-09-16T04:20:20.481Z,6.85
2017-09-16T04:22:48.174Z,6.88
2017-09-16T04:25:15.941Z,6.92
2017-09-16T04:27:43.643Z,6.99
2017-09-16T04:30:11.341Z,7.05
2017-09-16T04:32:39.097Z,7.11
2017-09-16T04:35:06.832Z,7.16
2017-09-16T04:37:34.593Z,7.19
2017-09-16T04:40:02.312Z,7.22
2017-09-16T04:42:30.063Z,7.22
2017-09-16T04:44:57.755Z,7.25
2017-09-16T04:47:25.523Z,7.32
2017-09-16T04:49:53.261Z,7.38
2017-09-16T04:52:21.022Z,7.44
2017-09-16T04:54:48.721Z,7.50
2017-09-16T04:57:16.476Z,7.56
2017-09-16T04:59:44.166Z,7.59
2017-09-16T05:02:11.913Z,7.61
2017-09-16T05:04:39.594Z,7.60
2017-09-16T05:07:07.355Z,7.56
2017-09-16T05:09:35.069Z,7.54
2017-09-16T05:12:02.825Z,7.53
2017-09-16T05:14:30.552Z,7.49
2017-09-16T05:16:58.312Z,7.41
2017-09-16T05:19:25.994Z,7.40
2017-09-16T05:21:53.795Z,7.42
2017-09-16T05:24:21.500Z,7.44
2017-09-16T05:26:49.248Z,7.48
2017-09-16T05:29:16.973Z,7.51
2017-09-16T05:31:44.733Z,7.58
2017-09-16T05:34:12.443Z,7.69
2017-09-16T05:36:40.241Z,7.76
2017-09-16T05:39:07.954Z,7.81
2017-09-16T05:41:35.679Z,7.84
2017-09-16T05:44:03.384Z,7.87
2017-09-16T05:46:31.142Z,7.95
2017-09-16T05:48:58.837Z,8.01
2017-09-16T05:51:26.504Z,8.08
2017-09-16T05:53:54.153Z,8.25
2017-09-16T05:56:21.900Z,8.56
2017-09-16T05:58:49.637Z,8.81
2017-09-16T06:01:17.404Z,9.01
2017-09-16T06:03:45.125Z,9.28
2017-09-16T06:06:12.913Z,9.52
2017-09-16T06:08:40.607Z,9.70
2017-09-16T06:11:08.331Z,9.71
2017-09-16T06:13:36.085Z,9.52
2017-09-16T06:16:03.809Z,9.41
2017-09-16T06:18:31.563Z,9.37
2017-09-16T06:20:59.259Z,9.34
2017-09-16T06:23:27.018Z,9.36
2017-09-16T06:25:54.736Z,9.46
2017-09-16T06:28:22.479Z,9.54
2017-09-16T06:30:50.182Z,9.64
2017-09-16T06:33:17.934Z,9.72
2017-09-16T06:35:45.681Z,9.81
2017-09-16T06:38:13.477Z,9.88
2017-09-16T06:40:41.236Z,9.98
2017-09-16T06:43:08.996Z,10.09
2017-09-16T06:45:36.697Z,10.17
2017-09-16T06:48:04.451Z,10.27
2017-09-16T06:50:32.176Z,10.40
2017-09-16T06:52:59.949Z,10.50
2017-09-16T06:55:27.689Z,10.63
2017-09-16T06:57:55.447Z,10.77
2017-09-16T07:00:23.148Z,10.92
2017-09-16T07:02:50.892Z,11.05
2017-09-16T07:05:18.607Z,11.19
2017-09-16T07:07:46.362Z,11.29
2017-09-16T07:10:14.077Z,11.42
2017-09-16T07:12:41.742Z,11.49
2017-09-16T07:15:09.460Z,11.62
2017-09-16T07:17:37.243Z,11.71
2017-09-16T07:20:04.964Z,11.88
2017-09-16T07:22:32.737Z,12.02
2017-09-16T07:25:00.480Z,12.17
2017-09-16T07:27:28.250Z,12.25
2017-09-16T07:29:55.948Z,12.25
2017-09-16T07:32:23.713Z,12.30
2017-09-16T07:34:51.488Z,12.35
2017-09-16T07:37:19.220Z,12.50
2017-09-16T07:39:46.939Z,12.58
2017-09-16T07:42:14.695Z,12.60
2017-09-16T07:44:42.405Z,12.73
2017-09-16T07:47:10.200Z,12.85
2017-09-16T07:49:37.897Z,12.96
2017-09-16T07:52:05.628Z,13.09
2017-09-16T07:54:33.360Z,13.18
2017-09-16T07:57:01.088Z,13.16
2017-09-16T07:59:28.873Z,13.26
2017-09-16T08:01:56.593Z,13.36
2017-09-16T08:04:24.248Z,13.47
2017-09-16T08:06:51.946Z,13.41
2017-09-16T08:09:19.726Z,13.51
2017-09-16T08:11:47.433Z,13.61
2017-09-16T08:14:15.216Z,13.72
2017-09-16T08:16:42.907Z,13.83
2017-09-16T08:19:10.673Z,13.82
2017-09-16T08:21:38.400Z,13.85
2017-09-16T08:24:06.154Z,13.87
2017-09-16T08:26:33.870Z,13.94
2017-09-16T08:29:01.630Z,14.06
2017-09-16T08:31:29.577Z,14.17
2017-09-16T08:33:57.303Z,14.25
2017-09-16T08:36:25.050Z,14.23
2017-09-16T08:38:52.838Z,14.38
2017-09-16T08:41:20.541Z,14.55
2017-09-16T08:43:48.337Z,14.46
2017-09-16T08:46:16.035Z,14.56
2017-09-16T08:48:43.771Z,14.65
2017-09-16T08:51:11.489Z,14.82
2017-09-16T08:53:39.233Z,14.89
2017-09-16T08:56:06.946Z,14.96
2017-09-16T08:58:34.687Z,15.07
2017-09-16T09:01:02.410Z,15.01
2017-09-16T09:03:30.198Z,15.01
2017-09-16T09:05:57.882Z,15.12
2017-09-16T09:08:25.670Z,15.30
2017-09-16T09:10:53.357Z,15.35
2017-09-16T09:13:21.266Z,15.44
2017-09-16T09:15:49.012Z,15.35
2017-09-16T09:18:16.817Z,15.01
2017-09-16T09:20:44.502Z,14.68
2017-09-16T09:23:12.350Z,14.43
2017-09-16T09:25:40.062Z,14.26
2017-09-16T09:28:07.807Z,14.29
2017-09-16T09:30:35.510Z,14.33
2017-09-16T09:33:03.201Z,14.57
2017-09-16T09:35:31.006Z,14.65
2017-09-16T09:37:59.162Z,14.56
2017-09-16T09:40:26.960Z,14.71
2017-09-16T09:42:54.695Z,14.89
2017-09-16T09:45:22.452Z,14.99
2017-09-16T09:47:50.146Z,14.95
2017-09-16T09:50:17.894Z,14.91
2017-09-16T09:52:45.608Z,14.98
2017-09-16T09:55:13.388Z,15.04
2017-09-16T09:57:41.104Z,14.99
2017-09-16T10:00:08.845Z,15.01
2017-09-16T10:02:36.575Z,15.13
2017-09-16T10:05:04.339Z,15.36
2017-09-16T10:07:32.080Z,15.53
2017-09-16T10:09:59.835Z,15.60
2017-09-16T10:12:27.512Z,15.50
2017-09-16T10:14:55.282Z,15.83
2017-09-16T10:17:22.975Z,16.30
2017-09-16T10:19:50.759Z,16.35
2017-09-16T10:22:18.453Z,16.39
2017-09-16T10:24:46.233Z,16.17
2017-09-16T10:27:13.972Z,16.13
2017-09-16T10:29:41.719Z,16.06
2017-09-16T10:32:09.424Z,15.94
2017-09-16T10:34:37.169Z,15.91
2017-09-16T10:37:04.915Z,15.83
2017-09-16T10:39:32.706Z,15.76
2017-09-16T10:42:00.400Z,15.92
2017-09-16T10:44:28.174Z,15.99
2017-09-16T10:46:56.139Z,15.92
2017-09-16T10:49:23.878Z,15.86
2017-09-16T10:51:51.572Z,15.76
2017-09-16T10:54:19.310Z,15.65
2017-09-16T10:56:47.027Z,15.80
2017-09-16T10:59:14.836Z,16.09
2017-09-16T11:01:42.542Z,16.35
2017-09-16T11:04:10.294Z,16.83
2017-09-16T11:06:37.987Z,17.19
2017-09-16T11:09:05.752Z,17.37
2017-09-16T11:11:33.569Z,17.52
2017-09-16T11:14:01.281Z,17.60
2017-09-16T11:16:29.028Z,17.55
2017-09-16T11:18:56.656Z,17.49
2017-09-16T11:21:24.414Z,17.40
2017-09-16T11:23:52.124Z,17.07
2017-09-16T11:26:19.876Z,16.79
2017-09-16T11:28:47.575Z,16.64
2017-09-16T11:31:15.398Z,16.50
2017-09-16T11:33:43.097Z,16.37
2017-09-16T11:36:10.926Z,16.30
2017-09-16T11:38:38.619Z,16.25
2017-09-16T11:41:06.376Z,16.20
2017-09-16T11:43:34.088Z,16.00
2017-09-16T11:46:01.904Z,16.07
2017-09-16T11:48:29.639Z,16.50
2017-09-16T11:50:57.424Z,16.85
2017-09-16T11:53:25.133Z,17.26
2017-09-16T11:55:52.895Z,17.67
2017-09-16T11:58:20.521Z,17.45
2017-09-16T12:00:48.274Z,17.33
2017-09-16T12:03:15.979Z,17.66
2017-09-16T12:05:43.640Z,17.93
2017-09-16T12:08:11.384Z,18.00
2017-09-16T12:10:39.159Z,18.11
2017-09-16T12:13:06.916Z,18.08
2017-09-16T12:15:34.689Z,18.29
2017-09-16T12:18:02.407Z,18.61
2017-09-16T12:20:30.174Z,18.53
2017-09-16T12:22:57.902Z,18.22
2017-09-16T12:25:25.651Z,18.40
2017-09-16T12:27:53.343Z,18.34
2017-09-16T12:30:21.101Z,17.94
2017-09-16T12:32:48.791Z,17.73
2017-09-16T12:35:16.582Z,17.70
2017-09-16T12:37:44.268Z,17.73
2017-09-16T12:40:12.009Z,18.00
2017-09-16T12:42:39.715Z,18.10
2017-09-16T12:45:07.477Z,17.87
2017-09-16T12:47:35.175Z,17.66
2017-09-16T12:50:02.964Z,17.36
2017-09-16T12:52:30.707Z,17.18
2017-09-16T12:54:58.439Z,17.12
2017-09-16T12:57:26.173Z,17.04
2017-09-16T12:59:53.895Z,17.04
2017-09-16T13:02:21.661Z,17.11
2017-09-16T13:04:49.350Z,17.07
2017-09-16T13:07:17.108Z,17.02
2017-09-16T13:09:44.855Z,16.90
2017-09-16T13:12:12.640Z,16.79
2017-09-16T13:14:40.341Z,16.62
2017-09-16T13:17:08.109Z,16.39
2017-09-16T13:19:35.809Z,16.34
2017-09-16T13:22:03.561Z,16.41
2017-09-16T13:24:31.316Z,16.47
2017-09-16T13:26:59.064Z,16.43
2017-09-16T13:29:26.766Z,16.30
2017-09-16T13:31:54.558Z,16.23
2017-09-16T13:34:22.306Z,16.19
2017-09-16T13:36:50.123Z,16.09
2017-09-16T13:39:17.832Z,16.10
2017-09-16T13:41:45.610Z,16.27
2017-09-16T13:44:13.316Z,16.45
2017-09-16T13:46:41.094Z,16.75
2017-09-16T13:49:08.787Z,17.20
2017-09-16T13:51:36.556Z,17.75
2017-09-16T13:54:04.286Z,18.14
2017-09-16T13:56:32.038Z,18.33
2017-09-16T13:58:59.740Z,18.20
2017-09-16T14:01:27.490Z,17.91
2017-09-16T14:03:55.195Z,17.72
2017-09-16T14:06:22.960Z,17.58
2017-09-16T14:08:50.982Z,17.74
2017-09-16T14:11:18.752Z,17.82
2017-09-16T14:13:46.493Z,17.79
2017-09-16T14:16:14.244Z,17.69
2017-09-16T14:18:41.963Z,17.59
2017-09-16T14:21:09.777Z,17.44
2017-09-16T14:23:37.486Z,17.30
2017-09-16T14:26:05.280Z,17.14
2017-09-16T14:28:32.998Z,16.94
2017-09-16T14:31:00.755Z,16.87
2017-09-16T14:33:28.532Z,16.88
2017-09-16T14:35:56.276Z,17.13
2017-09-16T14:38:24.055Z,17.50
2017-09-16T14:40:51.663Z,17.86
2017-09-16T14:43:19.399Z,18.16
2017-09-16T14:45:47.112Z,18.07
2017-09-16T14:48:14.875Z,17.91
2017-09-16T14:50:42.603Z,17.73
2017-09-16T14:53:10.353Z,17.84
2017-09-16T14:55:38.050Z,18.18
2017-09-16T14:58:05.823Z,18.44
2017-09-16T15:00:33.526Z,18.42
2017-09-16T15:03:01.280Z,18.11
2017-09-16T15:05:29.013Z,17.81
2017-09-16T15:07:56.808Z,17.47
2017-09-16T15:10:24.534Z,17.13
2017-09-16T15:12:52.295Z,16.81
2017-09-16T15:15:20.011Z,16.50
2017-09-16T15:17:47.786Z,16.31
2017-09-16T15:20:15.494Z,16.22
2017-09-16T15:22:43.271Z,16.14
2017-09-16T15:25:10.998Z,16.10
2017-09-16T15:27:38.757Z,16.07
2017-09-16T15:30:06.485Z,16.06
2017-09-16T15:32:34.236Z,16.08
2017-09-16T15:35:02.016Z,16.15
2017-09-16T15:37:29.829Z,16.23
2017-09-16T15:39:57.528Z,16.26
2017-09-16T15:42:25.296Z,16.27
2017-09-16T15:44:53.009Z,16.27
2017-09-16T15:47:20.791Z,16.22
2017-09-16T15:49:48.492Z,16.16
2017-09-16T15:52:16.250Z,16.07
2017-09-16T15:54:43.966Z,16.00
2017-09-16T15:57:11.763Z,15.96
2017-09-16T15:59:39.505Z,15.93
2017-09-16T16:02:07.318Z,15.91
2017-09-16T16:04:35.033Z,15.85
2017-09-16T16:07:02.806Z,15.79
2017-09-16T16:09:30.566Z,15.68
2017-09-16T16:11:58.281Z,15.56
2017-09-16T16:14:26.065Z,15.50
2017-09-16T16:16:53.783Z,15.51
2017-09-16T16:19:21.535Z,15.50
2017-09-16T16:21:49.253Z,15.40
2017-09-16T16:24:17.067Z,15.29
2017-09-16T16:26:44.772Z,15.28
2017-09-16T16:29:12.545Z,15.33
2017-09-16T16:31:40.303Z,15.40
2017-09-16T16:34:08.064Z,15.41
2017-09-16T16:36:35.818Z,15.40
2017-09-16T16:39:03.598Z,15.35
2017-09-16T16:41:31.207Z,15.36
2017-09-16T16:43:58.997Z,15.28
2017-09-16T16:46:26.705Z,15.14
2017-09-16T16:48:54.442Z,14.95
2017-09-16T16:51:22.152Z,14.78
2017-09-16T16:53:49.934Z,14.60
2017-09-16T16:56:17.644Z,14.44
2017-09-16T16:58:45.419Z,14.20
2017-09-16T17:01:13.036Z,14.06
2017-09-16T17:03:40.695Z,13.92
2017-09-16T17:06:08.413Z,13.78
2017-09-16T17:08:36.254Z,13.68
2017-09-16T17:11:04.924Z,13.56
2017-09-16T17:13:32.745Z,13.41
2017-09-16T17:16:00.479Z,13.31
2017-09-16T17:18:28.264Z,13.20
2017-09-16T17:20:55.991Z,13.15
2017-09-16T17:23:23.767Z,13.08
2017-09-16T17:25:51.477Z,12.99
2017-09-16T17:28:19.225Z,12.93
2017-09-16T17:30:46.923Z,12.90
2017-09-16T17:33:14.730Z,12.85
2017-09-16T17:35:42.631Z,12.81
2017-09-16T17:38:10.447Z,12.79
2017-09-16T17:40:38.172Z,12.77
2017-09-16T17:43:06.167Z,12.75
2017-09-16T17:45:33.913Z,12.72
2017-09-16T17:48:01.703Z,12.71
2017-09-16T17:50:29.397Z,12.69
2017-09-16T17:52:57.173Z,12.66
2017-09-16T17:55:24.922Z,12.61
2017-09-16T17:57:52.649Z,12.57
2017-09-16T18:00:20.446Z,12.54
2017-09-16T18:02:48.150Z,12.52
2017-09-16T18:05:15.895Z,12.50
2017-09-16T18:07:43.597Z,12.48
2017-09-16T18:10:11.355Z,12.46
2017-09-16T18:12:39.048Z,12.45
2017-09-16T18:15:06.820Z,12.42
2017-09-16T18:17:34.535Z,12.39
2017-09-16T18:20:02.297Z,12.31
2017-09-16T18:22:30.004Z,12.24
2017-09-16T18:24:57.793Z,12.11
2017-09-16T18:27:25.496Z,11.98
2017-09-16T18:29:53.274Z,11.75
2017-09-16T18:32:20.993Z,11.68
2017-09-16T18:34:48.741Z,11.64
2017-09-16T18:37:16.481Z,11.63
2017-09-16T18:39:44.232Z,11.65
2017-09-16T18:42:11.962Z,11.61
2017-09-16T18:44:39.727Z,11.58
2017-09-16T18:47:07.463Z,11.58
2017-09-16T18:49:35.199Z,11.58
2017-09-16T18:52:02.907Z,11.59
2017-09-16T18:54:30.573Z,11.56
2017-09-16T18:56:58.241Z,11.53
2017-09-16T18:59:26.046Z,11.55
2017-09-16T19:01:53.704Z,11.50
2017-09-16T19:04:21.474Z,11.47
2017-09-16T19:06:49.159Z,11.47
2017-09-16T19:09:16.942Z,11.46
2017-09-16T19:11:44.636Z,11.47
2017-09-16T19:14:12.407Z,11.48
2017-09-16T19:16:40.100Z,11.51
2017-09-16T19:19:07.902Z,11.51
2017-09-16T19:21:35.629Z,11.47
2017-09-16T19:24:03.413Z,11.43
2017-09-16T19:26:31.133Z,11.39
2017-09-16T19:28:58.898Z,11.37
2017-09-16T19:31:26.614Z,11.37
2017-09-16T19:33:54.367Z,11.38
2017-09-16T19:36:22.112Z,11.40
2017-09-16T19:38:49.809Z,11.42
2017-09-16T19:41:17.572Z,11.44
2017-09-16T19:43:45.205Z,11.46
2017-09-16T19:46:12.948Z,11.44
2017-09-16T19:48:40.687Z,11.45
2017-09-16T19:51:09.226Z,11.45
2017-09-16T19:53:36.939Z,11.43
2017-09-16T19:56:04.646Z,11.43
2017-09-16T19:58:32.395Z,11.43
2017-09-16T20:01:00.185Z,11.42
2017-09-16T20:03:27.905Z,11.40
2017-09-16T20:05:55.659Z,11.38
2017-09-16T20:08:23.417Z,11.39
2017-09-16T20:10:51.163Z,11.38
2017-09-16T20:13:18.878Z,11.34
2017-09-16T20:15:47.537Z,11.31
2017-09-16T20:18:15.269Z,11.25
2017-09-16T20:20:43.029Z,11.23
2017-09-16T20:23:10.737Z,11.21
2017-09-16T20:25:38.499Z,11.22
2017-09-16T20:28:06.184Z,11.21
2017-09-16T20:30:33.945Z,11.18
2017-09-16T20:33:01.668Z,11.12
2017-09-16T20:35:29.500Z,11.11
2017-09-16T20:37:57.226Z,11.08
2017-09-16T20:40:24.956Z,11.03
2017-09-16T20:42:52.713Z,11.00
2017-09-16T20:45:20.375Z,10.99
2017-09-16T20:47:48.070Z,11.00
2017-09-16T20:50:15.814Z,11.03
2017-09-16T20:52:43.516Z,11.03
2017-09-16T20:55:11.293Z,11.03
2017-09-16T20:57:38.985Z,11.03
2017-09-16T21:00:06.762Z,10.98
2017-09-16T21:02:34.504Z,10.95
2017-09-16T21:05:02.256Z,10.90
2017-09-16T21:07:29.959Z,10.85
2017-09-16T21:09:57.702Z,10.77
2017-09-16T21:12:25.462Z,10.72
2017-09-16T21:14:53.225Z,10.67
2017-09-16T21:17:20.909Z,10.59
2017-09-16T21:19:48.614Z,10.48
2017-09-16T21:22:16.355Z,10.36
2017-09-16T21:24:44.071Z,10.20
2017-09-16T21:27:11.711Z,10.14
2017-09-16T21:29:39.406Z,10.13
2017-09-16T21:32:07.151Z,10.09
2017-09-16T21:34:34.886Z,10.03
2017-09-16T21:37:02.679Z,9.97
2017-09-16T21:39:30.278Z,9.90
2017-09-16T21:41:58.056Z,9.78
2017-09-16T21:44:25.655Z,9.66
2017-09-16T21:46:53.370Z,9.57
2017-09-16T21:49:21.055Z,9.49
2017-09-16T21:51:48.810Z,9.42
2017-09-16T21:54:16.521Z,9.39
2017-09-16T21:56:44.267Z,9.36
2017-09-16T21:59:11.945Z,9.35
2017-09-16T22:01:39.661Z,9.31
2017-09-16T22:04:07.334Z,9.22
2017-09-16T22:06:35.078Z,9.11
2017-09-16T22:09:02.791Z,9.03
2017-09-16T22:11:30.540Z,8.96
2017-09-16T22:13:58.230Z,8.88
2017-09-16T22:16:25.980Z,8.86
2017-09-16T22:18:53.691Z,8.81
2017-09-16T22:21:21.434Z,8.81
2017-09-16T22:23:49.140Z,8.74
2017-09-16T22:26:16.889Z,8.64
2017-09-16T22:28:44.567Z,8.60
2017-09-16T22:31:12.294Z,8.65
2017-09-16T22:33:39.984Z,8.65
2017-09-16T22:36:07.629Z,8.63
2017-09-16T22:38:35.308Z,8.61
2017-09-16T22:41:03.044Z,8.54
2017-09-16T22:43:30.716Z,8.43
2017-09-16T22:45:58.440Z,8.32
2017-09-16T22:48:26.108Z,8.23
2017-09-16T22:50:53.857Z,8.18
2017-09-16T22:53:21.558Z,8.13
2017-09-16T22:55:49.281Z,8.11
2017-09-16T22:58:16.980Z,8.07
2017-09-16T23:00:44.662Z,8.06
2017-09-16T23:03:12.400Z,8.05
2017-09-16T23:05:40.096Z,8.06
2017-09-16T23:08:07.847Z,8.08
2017-09-16T23:10:35.518Z,8.03
2017-09-16T23:13:03.258Z,7.99
2017-09-16T23:15:30.942Z,7.94
2017-09-16T23:17:58.667Z,7.93
2017-09-16T23:20:26.374Z,7.88
2017-09-16T23:22:54.089Z,7.82
2017-09-16T23:25:21.789Z,7.67
2017-09-16T23:27:49.446Z,7.64
2017-09-16T23:30:17.163Z,7.60
2017-09-16T23:32:44.879Z,7.58
2017-09-16T23:35:12.581Z,7.57
2017-09-16T23:37:40.359Z,7.56
2017-09-16T23:40:08.024Z,7.52
2017-09-16T23:42:35.759Z,7.42
2017-09-16T23:45:03.438Z,7.32
2017-09-16T23:47:31.169Z,7.31
2017-09-16T23:49:58.860Z,7.26
2017-09-16T23:52:26.608Z,7.21
2017-09-16T23:54:54.290Z,7.16
2017-09-16T23:57:22.039Z,7.13
2017-09-16T23:59:49.715Z,7.15
